sensor_id;sensor_type;location;lat;lon;timestamp;P1;durP1;ratioP1;P2;durP2;ratioP2
53646;SDS011;39550;52.230;5.194;2022-09-03T00:02:32;5.07;;;2.93;;
53646;SDS011;39550;52.230;5.194;2022-09-03T00:05:19;4.22;;;2.70;;
53646;SDS011;39550;52.230;5.194;2022-09-03T00:13:23;5.53;;;2.50;;
53646;SDS011;39550;52.230;5.194;2022-09-03T00:15:54;4.32;;;2.58;;
53646;SDS011;39550;52.230;5.194;2022-09-03T00:18:22;4.57;;;2.40;;
53646;SDS011;39550;52.230;5.194;2022-09-03T00:21:02;4.57;;;2.47;;
53646;SDS011;39550;52.230;5.194;2022-09-03T00:23:38;4.78;;;2.45;;
53646;SDS011;39550;52.230;5.194;2022-09-03T00:28:41;3.90;;;2.53;;
53646;SDS011;39550;52.230;5.194;2022-09-03T00:34:09;5.00;;;2.88;;
53646;SDS011;39550;52.230;5.194;2022-09-03T00:36:40;4.68;;;2.72;;
53646;SDS011;39550;52.230;5.194;2022-09-03T00:39:14;4.10;;;2.40;;
53646;SDS011;39550;52.230;5.194;2022-09-03T00:47:21;4.03;;;2.75;;
53646;SDS011;39550;52.230;5.194;2022-09-03T00:49:55;4.22;;;2.60;;
53646;SDS011;39550;52.230;5.194;2022-09-03T00:52:38;4.25;;;2.70;;
53646;SDS011;39550;52.230;5.194;2022-09-03T00:55:15;4.65;;;2.90;;
53646;SDS011;39550;52.230;5.194;2022-09-03T00:58:01;3.88;;;2.40;;
53646;SDS011;39550;52.230;5.194;2022-09-03T01:00:33;4.28;;;2.47;;
53646;SDS011;39550;52.230;5.194;2022-09-03T01:03:10;4.22;;;2.50;;
53646;SDS011;39550;52.230;5.194;2022-09-03T01:06:00;4.43;;;2.50;;
53646;SDS011;39550;52.230;5.194;2022-09-03T01:11:31;4.85;;;2.80;;
53646;SDS011;39550;52.230;5.194;2022-09-03T01:30:40;5.32;;;2.55;;
53646;SDS011;39550;52.230;5.194;2022-09-03T01:39:01;3.67;;;2.28;;
53646;SDS011;39550;52.230;5.194;2022-09-03T01:52:58;3.25;;;2.10;;
53646;SDS011;39550;52.230;5.194;2022-09-03T01:55:32;4.20;;;2.38;;
53646;SDS011;39550;52.230;5.194;2022-09-03T01:58:22;5.55;;;3.08;;
53646;SDS011;39550;52.230;5.194;2022-09-03T02:00:49;4.57;;;2.30;;
53646;SDS011;39550;52.230;5.194;2022-09-03T02:03:23;4.60;;;2.80;;
53646;SDS011;39550;52.230;5.194;2022-09-03T02:05:57;5.15;;;2.50;;
53646;SDS011;39550;52.230;5.194;2022-09-03T02:08:23;4.20;;;2.30;;
53646;SDS011;39550;52.230;5.194;2022-09-03T02:10:53;4.45;;;2.22;;
53646;SDS011;39550;52.230;5.194;2022-09-03T02:13:24;4.72;;;2.90;;
53646;SDS011;39550;52.230;5.194;2022-09-03T02:15:55;4.00;;;2.83;;
53646;SDS011;39550;52.230;5.194;2022-09-03T02:18:26;3.75;;;2.35;;
53646;SDS011;39550;52.230;5.194;2022-09-03T02:20:55;5.57;;;2.55;;
53646;SDS011;39550;52.230;5.194;2022-09-03T02:23:23;4.30;;;2.58;;
53646;SDS011;39550;52.230;5.194;2022-09-03T02:25:50;3.78;;;2.40;;
53646;SDS011;39550;52.230;5.194;2022-09-03T02:28:19;4.72;;;2.67;;
53646;SDS011;39550;52.230;5.194;2022-09-03T02:30:44;4.60;;;2.60;;
53646;SDS011;39550;52.230;5.194;2022-09-03T02:33:10;4.10;;;2.60;;
53646;SDS011;39550;52.230;5.194;2022-09-03T02:35:35;3.72;;;2.35;;
53646;SDS011;39550;52.230;5.194;2022-09-03T02:38:10;4.50;;;2.33;;
53646;SDS011;39550;52.230;5.194;2022-09-03T02:40:37;3.60;;;2.20;;
53646;SDS011;39550;52.230;5.194;2022-09-03T02:43:03;4.47;;;2.55;;
53646;SDS011;39550;52.230;5.194;2022-09-03T02:45:33;4.43;;;2.72;;
53646;SDS011;39550;52.230;5.194;2022-09-03T02:48:01;3.67;;;2.20;;
53646;SDS011;39550;52.230;5.194;2022-09-03T02:50:27;4.07;;;2.60;;
53646;SDS011;39550;52.230;5.194;2022-09-03T02:52:53;4.57;;;2.45;;
53646;SDS011;39550;52.230;5.194;2022-09-03T02:55:18;3.85;;;2.30;;
53646;SDS011;39550;52.230;5.194;2022-09-03T02:57:44;3.70;;;2.40;;
53646;SDS011;39550;52.230;5.194;2022-09-03T03:00:11;3.65;;;2.47;;
53646;SDS011;39550;52.230;5.194;2022-09-03T03:02:37;3.60;;;2.10;;
53646;SDS011;39550;52.230;5.194;2022-09-03T03:05:03;4.43;;;2.33;;
53646;SDS011;39550;52.230;5.194;2022-09-03T03:07:29;3.50;;;2.20;;
53646;SDS011;39550;52.230;5.194;2022-09-03T03:09:56;4.22;;;2.58;;
53646;SDS011;39550;52.230;5.194;2022-09-03T03:12:22;3.50;;;2.25;;
53646;SDS011;39550;52.230;5.194;2022-09-03T03:14:47;4.45;;;2.67;;
53646;SDS011;39550;52.230;5.194;2022-09-03T03:17:12;5.30;;;2.77;;
53646;SDS011;39550;52.230;5.194;2022-09-03T03:19:38;4.07;;;2.30;;
53646;SDS011;39550;52.230;5.194;2022-09-03T03:22:03;4.63;;;2.40;;
53646;SDS011;39550;52.230;5.194;2022-09-03T03:24:28;3.90;;;2.35;;
53646;SDS011;39550;52.230;5.194;2022-09-03T03:26:54;3.80;;;2.35;;
53646;SDS011;39550;52.230;5.194;2022-09-03T03:29:22;4.35;;;2.45;;
53646;SDS011;39550;52.230;5.194;2022-09-03T03:31:49;4.18;;;2.30;;
53646;SDS011;39550;52.230;5.194;2022-09-03T03:34:14;3.78;;;2.30;;
53646;SDS011;39550;52.230;5.194;2022-09-03T03:36:40;3.90;;;2.55;;
53646;SDS011;39550;52.230;5.194;2022-09-03T03:39:05;3.95;;;2.35;;
53646;SDS011;39550;52.230;5.194;2022-09-03T03:41:31;5.70;;;2.33;;
53646;SDS011;39550;52.230;5.194;2022-09-03T03:43:58;4.13;;;2.63;;
53646;SDS011;39550;52.230;5.194;2022-09-03T03:46:28;3.67;;;2.20;;
53646;SDS011;39550;52.230;5.194;2022-09-03T03:48:56;3.85;;;2.45;;
53646;SDS011;39550;52.230;5.194;2022-09-03T03:51:21;4.97;;;2.45;;
53646;SDS011;39550;52.230;5.194;2022-09-03T03:53:47;4.00;;;2.30;;
53646;SDS011;39550;52.230;5.194;2022-09-03T03:56:13;3.30;;;2.20;;
53646;SDS011;39550;52.230;5.194;2022-09-03T03:58:40;3.78;;;2.30;;
53646;SDS011;39550;52.230;5.194;2022-09-03T04:01:09;3.75;;;2.20;;
53646;SDS011;39550;52.230;5.194;2022-09-03T04:03:38;4.07;;;2.53;;
53646;SDS011;39550;52.230;5.194;2022-09-03T04:06:04;3.72;;;2.38;;
53646;SDS011;39550;52.230;5.194;2022-09-03T04:08:32;7.20;;;2.75;;
53646;SDS011;39550;52.230;5.194;2022-09-03T04:11:08;4.00;;;2.30;;
53646;SDS011;39550;52.230;5.194;2022-09-03T04:13:37;4.20;;;2.30;;
53646;SDS011;39550;52.230;5.194;2022-09-03T04:16:05;3.63;;;2.25;;
53646;SDS011;39550;52.230;5.194;2022-09-03T04:18:33;3.60;;;2.20;;
53646;SDS011;39550;52.230;5.194;2022-09-03T04:21:06;3.63;;;2.10;;
53646;SDS011;39550;52.230;5.194;2022-09-03T04:23:34;3.60;;;2.30;;
53646;SDS011;39550;52.230;5.194;2022-09-03T04:26:01;4.25;;;2.20;;
53646;SDS011;39550;52.230;5.194;2022-09-03T04:28:27;3.65;;;2.20;;
53646;SDS011;39550;52.230;5.194;2022-09-03T04:30:53;5.22;;;2.30;;
53646;SDS011;39550;52.230;5.194;2022-09-03T04:33:19;4.10;;;2.30;;
53646;SDS011;39550;52.230;5.194;2022-09-03T04:35:44;3.92;;;2.45;;
53646;SDS011;39550;52.230;5.194;2022-09-03T04:38:10;3.90;;;2.30;;
53646;SDS011;39550;52.230;5.194;2022-09-03T04:40:35;3.78;;;2.22;;
53646;SDS011;39550;52.230;5.194;2022-09-03T04:43:01;3.83;;;2.45;;
53646;SDS011;39550;52.230;5.194;2022-09-03T04:45:27;4.18;;;2.42;;
53646;SDS011;39550;52.230;5.194;2022-09-03T04:48:01;3.70;;;2.28;;
53646;SDS011;39550;52.230;5.194;2022-09-03T04:50:28;5.90;;;2.47;;
53646;SDS011;39550;52.230;5.194;2022-09-03T04:52:59;4.00;;;2.45;;
53646;SDS011;39550;52.230;5.194;2022-09-03T04:55:26;3.90;;;2.22;;
53646;SDS011;39550;52.230;5.194;2022-09-03T04:57:51;3.65;;;2.22;;
53646;SDS011;39550;52.230;5.194;2022-09-03T05:00:17;4.65;;;2.33;;
53646;SDS011;39550;52.230;5.194;2022-09-03T05:02:43;5.60;;;2.30;;
53646;SDS011;39550;52.230;5.194;2022-09-03T05:05:11;4.35;;;2.33;;
53646;SDS011;39550;52.230;5.194;2022-09-03T05:07:37;5.03;;;2.47;;
53646;SDS011;39550;52.230;5.194;2022-09-03T05:10:06;4.28;;;2.42;;
53646;SDS011;39550;52.230;5.194;2022-09-03T05:12:33;3.80;;;2.28;;
53646;SDS011;39550;52.230;5.194;2022-09-03T05:14:59;4.70;;;2.47;;
53646;SDS011;39550;52.230;5.194;2022-09-03T05:17:25;4.35;;;2.35;;
53646;SDS011;39550;52.230;5.194;2022-09-03T05:19:51;3.65;;;2.30;;
53646;SDS011;39550;52.230;5.194;2022-09-03T05:22:17;3.70;;;2.30;;
53646;SDS011;39550;52.230;5.194;2022-09-03T05:24:45;3.75;;;2.30;;
53646;SDS011;39550;52.230;5.194;2022-09-03T05:27:12;4.22;;;2.20;;
53646;SDS011;39550;52.230;5.194;2022-09-03T05:29:40;3.90;;;2.30;;
53646;SDS011;39550;52.230;5.194;2022-09-03T05:32:06;3.70;;;2.10;;
53646;SDS011;39550;52.230;5.194;2022-09-03T05:34:31;4.15;;;2.50;;
53646;SDS011;39550;52.230;5.194;2022-09-03T05:36:57;4.43;;;2.55;;
53646;SDS011;39550;52.230;5.194;2022-09-03T05:39:22;3.88;;;2.50;;
53646;SDS011;39550;52.230;5.194;2022-09-03T05:41:47;3.55;;;2.03;;
53646;SDS011;39550;52.230;5.194;2022-09-03T05:44:16;4.20;;;2.05;;
53646;SDS011;39550;52.230;5.194;2022-09-03T05:46:41;3.50;;;2.15;;
53646;SDS011;39550;52.230;5.194;2022-09-03T05:49:07;3.40;;;2.30;;
53646;SDS011;39550;52.230;5.194;2022-09-03T05:51:33;3.33;;;2.10;;
53646;SDS011;39550;52.230;5.194;2022-09-03T05:53:59;4.00;;;2.42;;
53646;SDS011;39550;52.230;5.194;2022-09-03T05:56:27;3.95;;;2.10;;
53646;SDS011;39550;52.230;5.194;2022-09-03T05:58:55;3.45;;;2.20;;
53646;SDS011;39550;52.230;5.194;2022-09-03T06:01:25;3.67;;;2.10;;
53646;SDS011;39550;52.230;5.194;2022-09-03T06:03:54;3.70;;;2.20;;
53646;SDS011;39550;52.230;5.194;2022-09-03T06:06:20;4.25;;;2.30;;
53646;SDS011;39550;52.230;5.194;2022-09-03T06:08:49;4.57;;;2.47;;
53646;SDS011;39550;52.230;5.194;2022-09-03T06:11:16;4.32;;;2.10;;
53646;SDS011;39550;52.230;5.194;2022-09-03T06:13:41;3.70;;;2.10;;
53646;SDS011;39550;52.230;5.194;2022-09-03T06:16:07;3.55;;;2.20;;
53646;SDS011;39550;52.230;5.194;2022-09-03T06:18:33;3.75;;;2.20;;
53646;SDS011;39550;52.230;5.194;2022-09-03T06:20:59;4.15;;;2.25;;
53646;SDS011;39550;52.230;5.194;2022-09-03T06:23:27;3.75;;;2.13;;
53646;SDS011;39550;52.230;5.194;2022-09-03T06:26:06;3.83;;;2.20;;
53646;SDS011;39550;52.230;5.194;2022-09-03T06:28:37;3.60;;;2.28;;
53646;SDS011;39550;52.230;5.194;2022-09-03T06:31:05;4.63;;;2.40;;
53646;SDS011;39550;52.230;5.194;2022-09-03T06:33:33;4.80;;;2.35;;
53646;SDS011;39550;52.230;5.194;2022-09-03T06:36:00;5.47;;;2.40;;
53646;SDS011;39550;52.230;5.194;2022-09-03T06:38:31;4.68;;;2.28;;
53646;SDS011;39550;52.230;5.194;2022-09-03T06:40:59;4.55;;;2.10;;
53646;SDS011;39550;52.230;5.194;2022-09-03T06:43:29;4.53;;;2.30;;
53646;SDS011;39550;52.230;5.194;2022-09-03T06:45:56;4.50;;;2.25;;
53646;SDS011;39550;52.230;5.194;2022-09-03T06:48:23;3.97;;;2.33;;
53646;SDS011;39550;52.230;5.194;2022-09-03T06:50:54;4.38;;;2.55;;
53646;SDS011;39550;52.230;5.194;2022-09-03T06:53:24;7.10;;;2.30;;
53646;SDS011;39550;52.230;5.194;2022-09-03T06:55:51;7.18;;;2.65;;
53646;SDS011;39550;52.230;5.194;2022-09-03T06:58:28;6.93;;;2.50;;
53646;SDS011;39550;52.230;5.194;2022-09-03T07:01:02;6.50;;;2.58;;
53646;SDS011;39550;52.230;5.194;2022-09-03T07:03:31;15.13;;;3.45;;
53646;SDS011;39550;52.230;5.194;2022-09-03T07:06:01;7.93;;;2.83;;
53646;SDS011;39550;52.230;5.194;2022-09-03T07:08:29;9.73;;;2.70;;
53646;SDS011;39550;52.230;5.194;2022-09-03T07:10:56;7.95;;;2.70;;
53646;SDS011;39550;52.230;5.194;2022-09-03T07:13:30;7.38;;;2.60;;
53646;SDS011;39550;52.230;5.194;2022-09-03T07:15:59;6.55;;;2.50;;
53646;SDS011;39550;52.230;5.194;2022-09-03T07:18:26;6.22;;;2.28;;
53646;SDS011;39550;52.230;5.194;2022-09-03T07:20:51;11.00;;;2.75;;
53646;SDS011;39550;52.230;5.194;2022-09-03T07:23:16;5.00;;;2.25;;
53646;SDS011;39550;52.230;5.194;2022-09-03T07:25:42;7.55;;;2.85;;
53646;SDS011;39550;52.230;5.194;2022-09-03T07:28:07;5.75;;;2.47;;
53646;SDS011;39550;52.230;5.194;2022-09-03T07:30:33;5.10;;;2.78;;
53646;SDS011;39550;52.230;5.194;2022-09-03T07:32:58;5.43;;;2.58;;
53646;SDS011;39550;52.230;5.194;2022-09-03T07:35:27;6.43;;;2.70;;
53646;SDS011;39550;52.230;5.194;2022-09-03T07:37:53;4.90;;;2.33;;
53646;SDS011;39550;52.230;5.194;2022-09-03T07:40:19;6.22;;;2.55;;
53646;SDS011;39550;52.230;5.194;2022-09-03T07:42:44;6.63;;;2.38;;
53646;SDS011;39550;52.230;5.194;2022-09-03T07:45:12;5.45;;;2.63;;
53646;SDS011;39550;52.230;5.194;2022-09-03T07:47:44;5.35;;;2.47;;
53646;SDS011;39550;52.230;5.194;2022-09-03T07:50:11;4.68;;;2.33;;
53646;SDS011;39550;52.230;5.194;2022-09-03T07:52:36;5.23;;;2.40;;
53646;SDS011;39550;52.230;5.194;2022-09-03T07:55:02;6.57;;;2.30;;
53646;SDS011;39550;52.230;5.194;2022-09-03T07:57:28;7.10;;;2.40;;
53646;SDS011;39550;52.230;5.194;2022-09-03T07:59:54;7.80;;;2.45;;
53646;SDS011;39550;52.230;5.194;2022-09-03T08:02:19;8.82;;;3.13;;
53646;SDS011;39550;52.230;5.194;2022-09-03T08:04:45;7.80;;;2.47;;
53646;SDS011;39550;52.230;5.194;2022-09-03T08:07:10;6.47;;;2.22;;
53646;SDS011;39550;52.230;5.194;2022-09-03T08:09:36;5.82;;;2.72;;
53646;SDS011;39550;52.230;5.194;2022-09-03T08:12:02;4.68;;;2.33;;
53646;SDS011;39550;52.230;5.194;2022-09-03T08:14:27;5.90;;;2.17;;
53646;SDS011;39550;52.230;5.194;2022-09-03T08:16:55;4.15;;;2.47;;
53646;SDS011;39550;52.230;5.194;2022-09-03T08:19:21;5.68;;;2.58;;
53646;SDS011;39550;52.230;5.194;2022-09-03T08:21:47;4.05;;;2.30;;
53646;SDS011;39550;52.230;5.194;2022-09-03T08:24:14;6.53;;;2.42;;
53646;SDS011;39550;52.230;5.194;2022-09-03T08:26:40;6.13;;;2.65;;
53646;SDS011;39550;52.230;5.194;2022-09-03T08:29:06;5.95;;;2.72;;
53646;SDS011;39550;52.230;5.194;2022-09-03T08:31:32;11.73;;;3.28;;
53646;SDS011;39550;52.230;5.194;2022-09-03T08:34:01;20.58;;;4.43;;
53646;SDS011;39550;52.230;5.194;2022-09-03T08:36:30;15.88;;;3.70;;
53646;SDS011;39550;52.230;5.194;2022-09-03T08:38:59;15.27;;;3.78;;
53646;SDS011;39550;52.230;5.194;2022-09-03T08:41:50;14.93;;;3.50;;
53646;SDS011;39550;52.230;5.194;2022-09-03T08:44:40;9.20;;;3.00;;
53646;SDS011;39550;52.230;5.194;2022-09-03T08:47:13;10.55;;;2.83;;
53646;SDS011;39550;52.230;5.194;2022-09-03T08:55:13;5.63;;;2.47;;
53646;SDS011;39550;52.230;5.194;2022-09-03T08:57:48;17.20;;;3.03;;
53646;SDS011;39550;52.230;5.194;2022-09-03T09:00:17;14.43;;;3.47;;
53646;SDS011;39550;52.230;5.194;2022-09-03T09:05:41;24.05;;;5.80;;
53646;SDS011;39550;52.230;5.194;2022-09-03T09:08:17;82.80;;;12.70;;
53646;SDS011;39550;52.230;5.194;2022-09-03T09:10:57;64.00;;;9.55;;
53646;SDS011;39550;52.230;5.194;2022-09-03T09:16:15;20.73;;;4.65;;
53646;SDS011;39550;52.230;5.194;2022-09-03T09:21:30;10.57;;;3.42;;
53646;SDS011;39550;52.230;5.194;2022-09-03T09:24:02;15.63;;;3.17;;
53646;SDS011;39550;52.230;5.194;2022-09-03T09:26:34;8.93;;;3.35;;
53646;SDS011;39550;52.230;5.194;2022-09-03T09:29:01;6.82;;;2.72;;
53646;SDS011;39550;52.230;5.194;2022-09-03T09:31:30;8.18;;;2.50;;
53646;SDS011;39550;52.230;5.194;2022-09-03T09:34:06;9.57;;;2.60;;
53646;SDS011;39550;52.230;5.194;2022-09-03T09:36:51;7.13;;;2.60;;
53646;SDS011;39550;52.230;5.194;2022-09-03T09:39:18;6.63;;;2.40;;
53646;SDS011;39550;52.230;5.194;2022-09-03T09:44:45;6.80;;;2.60;;
53646;SDS011;39550;52.230;5.194;2022-09-03T09:47:21;10.32;;;2.90;;
53646;SDS011;39550;52.230;5.194;2022-09-03T09:52:16;10.67;;;2.73;;
53646;SDS011;39550;52.230;5.194;2022-09-03T09:54:42;7.63;;;2.90;;
53646;SDS011;39550;52.230;5.194;2022-09-03T09:57:17;10.10;;;2.87;;
53646;SDS011;39550;52.230;5.194;2022-09-03T09:59:47;15.23;;;3.42;;
53646;SDS011;39550;52.230;5.194;2022-09-03T10:02:18;15.45;;;3.20;;
53646;SDS011;39550;52.230;5.194;2022-09-03T10:04:50;6.95;;;2.70;;
53646;SDS011;39550;52.230;5.194;2022-09-03T10:07:22;12.30;;;3.25;;
53646;SDS011;39550;52.230;5.194;2022-09-03T10:10:37;10.02;;;3.15;;
53646;SDS011;39550;52.230;5.194;2022-09-03T10:12:50;6.78;;;2.70;;
53646;SDS011;39550;52.230;5.194;2022-09-03T10:15:57;9.55;;;5.80;;
53646;SDS011;39550;52.230;5.194;2022-09-03T10:26:24;10.43;;;7.93;;
53646;SDS011;39550;52.230;5.194;2022-09-03T10:28:58;18.48;;;16.27;;
53646;SDS011;39550;52.230;5.194;2022-09-03T10:36:33;7.53;;;4.90;;
53646;SDS011;39550;52.230;5.194;2022-09-03T10:50:09;6.18;;;2.60;;
53646;SDS011;39550;52.230;5.194;2022-09-03T10:52:56;5.18;;;2.47;;
53646;SDS011;39550;52.230;5.194;2022-09-03T10:55:54;9.50;;;2.58;;
53646;SDS011;39550;52.230;5.194;2022-09-03T10:58:36;5.55;;;2.30;;
53646;SDS011;39550;52.230;5.194;2022-09-03T11:01:13;3.72;;;2.30;;
53646;SDS011;39550;52.230;5.194;2022-09-03T11:06:10;6.63;;;2.40;;
53646;SDS011;39550;52.230;5.194;2022-09-03T11:08:43;6.20;;;2.20;;
53646;SDS011;39550;52.230;5.194;2022-09-03T11:11:20;4.78;;;2.20;;
53646;SDS011;39550;52.230;5.194;2022-09-03T11:13:58;5.25;;;2.40;;
53646;SDS011;39550;52.230;5.194;2022-09-03T11:16:29;4.47;;;2.35;;
53646;SDS011;39550;52.230;5.194;2022-09-03T11:19:05;6.97;;;2.35;;
53646;SDS011;39550;52.230;5.194;2022-09-03T11:21:35;4.65;;;2.03;;
53646;SDS011;39550;52.230;5.194;2022-09-03T11:24:08;7.40;;;2.40;;
53646;SDS011;39550;52.230;5.194;2022-09-03T11:26:37;5.05;;;2.67;;
53646;SDS011;39550;52.230;5.194;2022-09-03T11:32:02;4.82;;;2.42;;
53646;SDS011;39550;52.230;5.194;2022-09-03T11:34:45;5.15;;;2.53;;
53646;SDS011;39550;52.230;5.194;2022-09-03T11:39:55;3.60;;;2.10;;
53646;SDS011;39550;52.230;5.194;2022-09-03T11:42:35;4.43;;;2.47;;
53646;SDS011;39550;52.230;5.194;2022-09-03T11:47:51;5.63;;;2.47;;
53646;SDS011;39550;52.230;5.194;2022-09-03T11:50:24;5.28;;;2.17;;
53646;SDS011;39550;52.230;5.194;2022-09-03T11:53:37;5.75;;;2.58;;
53646;SDS011;39550;52.230;5.194;2022-09-03T11:55:53;5.50;;;2.35;;
53646;SDS011;39550;52.230;5.194;2022-09-03T11:58:39;5.93;;;2.40;;
53646;SDS011;39550;52.230;5.194;2022-09-03T12:01:10;5.00;;;2.50;;
53646;SDS011;39550;52.230;5.194;2022-09-03T12:04:23;4.47;;;2.00;;
53646;SDS011;39550;52.230;5.194;2022-09-03T12:15:04;5.28;;;2.45;;
53646;SDS011;39550;52.230;5.194;2022-09-03T12:17:32;5.05;;;2.38;;
53646;SDS011;39550;52.230;5.194;2022-09-03T12:20:12;5.25;;;2.50;;
53646;SDS011;39550;52.230;5.194;2022-09-03T12:22:39;3.95;;;2.42;;
53646;SDS011;39550;52.230;5.194;2022-09-03T12:25:13;3.67;;;2.03;;
53646;SDS011;39550;52.230;5.194;2022-09-03T12:27:40;4.82;;;2.50;;
53646;SDS011;39550;52.230;5.194;2022-09-03T12:30:16;6.22;;;2.45;;
53646;SDS011;39550;52.230;5.194;2022-09-03T12:32:45;5.00;;;2.22;;
53646;SDS011;39550;52.230;5.194;2022-09-03T12:35:13;5.55;;;2.30;;
53646;SDS011;39550;52.230;5.194;2022-09-03T12:37:40;3.80;;;2.30;;
53646;SDS011;39550;52.230;5.194;2022-09-03T12:40:20;6.75;;;2.28;;
53646;SDS011;39550;52.230;5.194;2022-09-03T12:42:53;4.00;;;2.40;;
53646;SDS011;39550;52.230;5.194;2022-09-03T12:45:20;4.22;;;2.33;;
53646;SDS011;39550;52.230;5.194;2022-09-03T12:47:50;4.97;;;2.30;;
53646;SDS011;39550;52.230;5.194;2022-09-03T12:50:21;5.10;;;2.40;;
53646;SDS011;39550;52.230;5.194;2022-09-03T12:52:49;4.65;;;2.05;;
53646;SDS011;39550;52.230;5.194;2022-09-03T12:58:20;6.32;;;2.17;;
53646;SDS011;39550;52.230;5.194;2022-09-03T13:01:03;4.78;;;2.03;;
53646;SDS011;39550;52.230;5.194;2022-09-03T13:03:43;4.10;;;2.10;;
53646;SDS011;39550;52.230;5.194;2022-09-03T13:06:14;5.60;;;2.30;;
53646;SDS011;39550;52.230;5.194;2022-09-03T13:08:45;5.20;;;2.53;;
53646;SDS011;39550;52.230;5.194;2022-09-03T13:11:14;3.83;;;2.20;;
53646;SDS011;39550;52.230;5.194;2022-09-03T13:13:49;4.05;;;2.05;;
53646;SDS011;39550;52.230;5.194;2022-09-03T13:24:58;4.30;;;2.42;;
53646;SDS011;39550;52.230;5.194;2022-09-03T13:30:21;3.53;;;2.20;;
53646;SDS011;39550;52.230;5.194;2022-09-03T13:32:56;3.97;;;2.28;;
53646;SDS011;39550;52.230;5.194;2022-09-03T13:35:28;4.68;;;2.40;;
53646;SDS011;39550;52.230;5.194;2022-09-03T13:49:27;4.88;;;2.20;;
53646;SDS011;39550;52.230;5.194;2022-09-03T13:55:08;5.45;;;2.22;;
53646;SDS011;39550;52.230;5.194;2022-09-03T13:57:56;3.83;;;2.00;;
53646;SDS011;39550;52.230;5.194;2022-09-03T14:00:28;4.03;;;2.20;;
53646;SDS011;39550;52.230;5.194;2022-09-03T14:03:02;3.83;;;2.20;;
53646;SDS011;39550;52.230;5.194;2022-09-03T14:05:35;4.22;;;2.20;;
53646;SDS011;39550;52.230;5.194;2022-09-03T14:08:14;5.22;;;3.00;;
53646;SDS011;39550;52.230;5.194;2022-09-03T14:10:57;3.97;;;2.10;;
53646;SDS011;39550;52.230;5.194;2022-09-03T14:14:02;3.85;;;2.40;;
53646;SDS011;39550;52.230;5.194;2022-09-03T14:16:37;3.30;;;2.08;;
53646;SDS011;39550;52.230;5.194;2022-09-03T14:19:14;3.55;;;2.10;;
53646;SDS011;39550;52.230;5.194;2022-09-03T14:21:46;3.30;;;2.00;;
53646;SDS011;39550;52.230;5.194;2022-09-03T14:24:25;3.30;;;1.95;;
53646;SDS011;39550;52.230;5.194;2022-09-03T14:26:55;3.83;;;2.40;;
53646;SDS011;39550;52.230;5.194;2022-09-03T14:29:27;4.35;;;2.28;;
53646;SDS011;39550;52.230;5.194;2022-09-03T14:37:29;3.70;;;2.17;;
53646;SDS011;39550;52.230;5.194;2022-09-03T14:43:09;4.45;;;2.47;;
53646;SDS011;39550;52.230;5.194;2022-09-03T14:46:08;3.58;;;2.22;;
53646;SDS011;39550;52.230;5.194;2022-09-03T14:54:17;3.80;;;2.10;;
53646;SDS011;39550;52.230;5.194;2022-09-03T14:57:00;3.80;;;2.30;;
53646;SDS011;39550;52.230;5.194;2022-09-03T15:07:48;5.50;;;2.30;;
53646;SDS011;39550;52.230;5.194;2022-09-03T15:10:27;4.00;;;2.20;;
53646;SDS011;39550;52.230;5.194;2022-09-03T15:13:06;4.10;;;2.40;;
53646;SDS011;39550;52.230;5.194;2022-09-03T15:20:51;3.67;;;2.22;;
53646;SDS011;39550;52.230;5.194;2022-09-03T15:23:26;3.83;;;2.13;;
53646;SDS011;39550;52.230;5.194;2022-09-03T15:26:22;4.13;;;2.55;;
53646;SDS011;39550;52.230;5.194;2022-09-03T15:29:22;3.78;;;2.10;;
53646;SDS011;39550;52.230;5.194;2022-09-03T15:32:01;4.32;;;2.10;;
53646;SDS011;39550;52.230;5.194;2022-09-03T15:34:34;3.47;;;2.10;;
53646;SDS011;39550;52.230;5.194;2022-09-03T15:37:12;3.85;;;2.33;;
53646;SDS011;39550;52.230;5.194;2022-09-03T15:39:44;3.80;;;2.35;;
53646;SDS011;39550;52.230;5.194;2022-09-03T15:42:20;4.97;;;2.20;;
53646;SDS011;39550;52.230;5.194;2022-09-03T15:44:52;4.60;;;2.75;;
53646;SDS011;39550;52.230;5.194;2022-09-03T15:55:33;8.18;;;3.15;;
53646;SDS011;39550;52.230;5.194;2022-09-03T16:01:21;4.60;;;2.47;;
53646;SDS011;39550;52.230;5.194;2022-09-03T16:06:49;5.35;;;2.60;;
53646;SDS011;39550;52.230;5.194;2022-09-03T16:13:11;6.32;;;3.53;;
53646;SDS011;39550;52.230;5.194;2022-09-03T16:17:53;4.55;;;2.90;;
53646;SDS011;39550;52.230;5.194;2022-09-03T16:23:21;5.88;;;2.90;;
53646;SDS011;39550;52.230;5.194;2022-09-03T16:26:02;4.45;;;2.88;;
53646;SDS011;39550;52.230;5.194;2022-09-03T16:28:34;3.80;;;2.35;;
53646;SDS011;39550;52.230;5.194;2022-09-03T16:31:12;4.95;;;2.85;;
53646;SDS011;39550;52.230;5.194;2022-09-03T16:33:57;5.95;;;2.45;;
53646;SDS011;39550;52.230;5.194;2022-09-03T16:39:54;6.18;;;2.80;;
53646;SDS011;39550;52.230;5.194;2022-09-03T16:53:21;5.40;;;3.10;;
53646;SDS011;39550;52.230;5.194;2022-09-03T16:56:13;5.75;;;3.33;;
53646;SDS011;39550;52.230;5.194;2022-09-03T17:12:42;5.90;;;3.58;;
53646;SDS011;39550;52.230;5.194;2022-09-03T17:17:59;5.72;;;3.78;;
53646;SDS011;39550;52.230;5.194;2022-09-03T17:20:48;5.65;;;3.63;;
53646;SDS011;39550;52.230;5.194;2022-09-03T17:29:23;5.18;;;3.15;;
53646;SDS011;39550;52.230;5.194;2022-09-03T17:32:05;5.35;;;3.00;;
53646;SDS011;39550;52.230;5.194;2022-09-03T17:34:50;6.55;;;3.70;;
53646;SDS011;39550;52.230;5.194;2022-09-03T17:45:45;5.22;;;3.30;;
53646;SDS011;39550;52.230;5.194;2022-09-03T17:48:15;5.27;;;3.13;;
53646;SDS011;39550;52.230;5.194;2022-09-03T17:50:52;4.70;;;2.88;;
53646;SDS011;39550;52.230;5.194;2022-09-03T17:59:00;5.35;;;2.90;;
53646;SDS011;39550;52.230;5.194;2022-09-03T18:01:47;7.70;;;3.50;;
53646;SDS011;39550;52.230;5.194;2022-09-03T18:07:25;5.32;;;2.85;;
53646;SDS011;39550;52.230;5.194;2022-09-03T18:15:28;4.95;;;2.97;;
53646;SDS011;39550;52.230;5.194;2022-09-03T18:18:04;5.10;;;3.20;;
53646;SDS011;39550;52.230;5.194;2022-09-03T18:20:47;5.68;;;3.28;;
53646;SDS011;39550;52.230;5.194;2022-09-03T18:26:36;7.47;;;3.45;;
53646;SDS011;39550;52.230;5.194;2022-09-03T18:29:31;5.20;;;2.92;;
53646;SDS011;39550;52.230;5.194;2022-09-03T18:32:20;5.03;;;3.08;;
53646;SDS011;39550;52.230;5.194;2022-09-03T18:35:04;4.30;;;2.50;;
53646;SDS011;39550;52.230;5.194;2022-09-03T18:37:48;6.72;;;3.38;;
53646;SDS011;39550;52.230;5.194;2022-09-03T18:41:07;6.30;;;3.00;;
53646;SDS011;39550;52.230;5.194;2022-09-03T18:46:52;7.72;;;3.30;;
53646;SDS011;39550;52.230;5.194;2022-09-03T18:52:44;9.10;;;3.25;;
53646;SDS011;39550;52.230;5.194;2022-09-03T18:59:17;6.07;;;2.95;;
53646;SDS011;39550;52.230;5.194;2022-09-03T19:08:35;4.82;;;2.83;;
53646;SDS011;39550;52.230;5.194;2022-09-03T19:14:38;6.60;;;2.90;;
53646;SDS011;39550;52.230;5.194;2022-09-03T19:20:50;5.50;;;2.95;;
53646;SDS011;39550;52.230;5.194;2022-09-03T19:23:41;4.70;;;3.15;;
53646;SDS011;39550;52.230;5.194;2022-09-03T19:26:38;5.78;;;2.80;;
53646;SDS011;39550;52.230;5.194;2022-09-03T19:29:37;6.03;;;2.60;;
53646;SDS011;39550;52.230;5.194;2022-09-03T19:36:01;4.60;;;2.78;;
53646;SDS011;39550;52.230;5.194;2022-09-03T19:42:00;4.25;;;2.70;;
53646;SDS011;39550;52.230;5.194;2022-09-03T19:48:02;4.18;;;2.60;;
53646;SDS011;39550;52.230;5.194;2022-09-03T19:51:10;3.90;;;2.40;;
53646;SDS011;39550;52.230;5.194;2022-09-03T19:56:38;5.10;;;2.63;;
53646;SDS011;39550;52.230;5.194;2022-09-03T19:59:24;4.13;;;2.95;;
53646;SDS011;39550;52.230;5.194;2022-09-03T20:02:11;4.57;;;2.72;;
53646;SDS011;39550;52.230;5.194;2022-09-03T20:07:48;5.40;;;3.07;;
53646;SDS011;39550;52.230;5.194;2022-09-03T20:10:34;4.38;;;2.83;;
53646;SDS011;39550;52.230;5.194;2022-09-03T20:18:21;4.63;;;2.85;;
53646;SDS011;39550;52.230;5.194;2022-09-03T20:20:54;5.28;;;3.03;;
53646;SDS011;39550;52.230;5.194;2022-09-03T20:32:59;6.00;;;3.17;;